createdAt,value
2023-04-12T00:01:35.040Z,16.09
2023-04-12T00:04:38.517Z,16.84
2023-04-12T00:07:43.368Z,17.29
2023-04-12T00:10:46.809Z,17.73
2023-04-12T00:13:49.962Z,18.00
2023-04-12T00:16:53.395Z,17.40
2023-04-12T00:19:56.711Z,16.77
2023-04-12T00:22:59.834Z,16.13
2023-04-12T00:26:03.043Z,15.46
2023-04-12T00:29:06.379Z,14.92
2023-04-12T00:32:09.644Z,14.56
2023-04-12T00:35:12.947Z,14.15
2023-04-12T00:38:16.889Z,13.48
2023-04-12T00:41:20.113Z,12.25
2023-04-12T00:44:24.098Z,10.84
2023-04-12T00:47:30.241Z,9.33
2023-04-12T00:50:33.552Z,8.14
2023-04-12T00:53:37.268Z,7.34
2023-04-12T00:56:43.353Z,6.79
2023-04-12T00:59:47.878Z,6.18
2023-04-12T01:02:51.651Z,5.90
2023-04-12T01:06:05.039Z,5.71
2023-04-12T01:09:30.874Z,5.50
2023-04-12T01:12:33.993Z,5.27
2023-04-12T01:15:48.421Z,5.17
2023-04-12T01:18:52.970Z,5.17
2023-04-12T01:22:21.057Z,5.10
2023-04-12T01:25:48.811Z,5.10
2023-04-12T01:28:55.283Z,5.07
2023-04-12T01:32:03.518Z,4.93
2023-04-12T01:35:11.617Z,4.90
2023-04-12T01:38:15.203Z,4.96
2023-04-12T01:41:20.565Z,5.18
2023-04-12T01:44:23.980Z,5.32
2023-04-12T01:47:29.180Z,5.47
2023-04-12T01:51:13.971Z,5.78
2023-04-12T01:54:26.330Z,6.05
2023-04-12T01:57:30.470Z,5.88
2023-04-12T02:00:37.680Z,5.77
2023-04-12T02:03:43.734Z,5.80
2023-04-12T02:06:48.479Z,6.05
2023-04-12T02:09:51.997Z,6.11
2023-04-12T02:12:56.317Z,6.16
2023-04-12T02:16:00.353Z,6.38
2023-04-12T02:19:04.688Z,6.35
2023-04-12T02:22:09.072Z,6.51
2023-04-12T02:25:13.390Z,6.56
2023-04-12T02:28:19.719Z,6.67
2023-04-12T02:31:25.261Z,6.89
2023-04-12T02:34:34.849Z,7.02
2023-04-12T02:37:49.343Z,7.16
2023-04-12T02:40:52.532Z,7.32
2023-04-12T02:43:56.610Z,7.47
2023-04-12T02:47:00.541Z,7.56
2023-04-12T02:50:06.345Z,7.65
2023-04-12T02:53:18.410Z,7.72
2023-04-12T02:56:30.844Z,7.80
2023-04-12T02:59:43.650Z,7.89
2023-04-12T03:03:03.822Z,8.02
2023-04-12T03:06:10.179Z,8.09
2023-04-12T03:09:14.070Z,8.14
2023-04-12T03:12:17.631Z,8.25
2023-04-12T03:15:44.321Z,8.41
2023-04-12T03:18:48.754Z,8.43
2023-04-12T03:21:52.425Z,8.48
2023-04-12T03:24:55.985Z,8.53
2023-04-12T03:27:59.181Z,8.54
2023-04-12T03:31:21.738Z,8.51
2023-04-12T03:34:33.017Z,8.35
2023-04-12T03:37:43.566Z,8.28
2023-04-12T03:40:48.146Z,8.17
2023-04-12T03:43:55.945Z,8.17
2023-04-12T03:46:59.649Z,8.26
2023-04-12T03:50:12.053Z,8.35
2023-04-12T03:53:22.732Z,8.48
2023-04-12T03:56:26.977Z,8.55
2023-04-12T03:59:33.402Z,8.62
2023-04-12T04:02:37.488Z,8.67
2023-04-12T04:05:43.094Z,8.61
2023-04-12T04:08:47.403Z,8.65
2023-04-12T04:11:52.254Z,8.74
2023-04-12T04:14:57.519Z,8.83
2023-04-12T04:18:06.324Z,8.89
2023-04-12T04:21:10.089Z,9.03
2023-04-12T04:24:14.978Z,9.18
2023-04-12T04:27:22.849Z,9.31
2023-04-12T04:30:27.861Z,9.35
2023-04-12T04:33:35.094Z,9.38
2023-04-12T04:36:39.312Z,9.32
2023-04-12T04:39:44.046Z,9.38
2023-04-12T04:42:54.980Z,9.34
2023-04-12T04:46:02.907Z,9.23
2023-04-12T04:49:06.967Z,9.12
2023-04-12T04:52:10.672Z,9.09
2023-04-12T04:55:14.438Z,9.02
2023-04-12T04:58:20.992Z,8.59
2023-04-12T05:01:29.033Z,8.61
2023-04-12T05:04:35.332Z,8.70
2023-04-12T05:07:39.320Z,8.82
2023-04-12T05:10:45.080Z,9.01
2023-04-12T05:13:48.363Z,9.00
2023-04-12T05:16:51.850Z,9.04
2023-04-12T05:19:55.488Z,9.04
2023-04-12T05:22:58.682Z,9.00
2023-04-12T05:26:02.424Z,8.72
2023-04-12T05:29:07.145Z,8.65
2023-04-12T05:32:10.398Z,8.78
2023-04-12T05:35:14.188Z,8.98
2023-04-12T05:38:19.701Z,9.17
2023-04-12T05:41:30.436Z,9.33
2023-04-12T05:44:36.553Z,9.49
2023-04-12T05:47:42.680Z,9.50
2023-04-12T05:50:54.242Z,9.57
2023-04-12T05:53:59.083Z,9.53
2023-04-12T05:57:08.145Z,9.47
2023-04-12T06:00:19.023Z,9.49
2023-04-12T06:03:26.765Z,9.47
2023-04-12T06:06:35.436Z,9.38
2023-04-12T06:09:38.911Z,9.35
2023-04-12T06:12:42.188Z,9.33
2023-04-12T06:15:45.790Z,9.23
2023-04-12T06:18:49.489Z,9.27
2023-04-12T06:21:53.335Z,9.43
2023-04-12T06:24:57.161Z,9.58
2023-04-12T06:28:01.009Z,9.66
2023-04-12T06:31:05.162Z,9.57
2023-04-12T06:34:12.945Z,9.47
2023-04-12T06:37:16.610Z,9.42
2023-04-12T06:45:07.969Z,9.50
2023-04-12T06:48:11.076Z,9.48
2023-04-12T06:51:14.262Z,9.38
2023-04-12T06:54:17.402Z,9.38
2023-04-12T06:57:20.939Z,9.34
2023-04-12T07:00:24.739Z,9.34
2023-04-12T07:03:29.039Z,9.33
2023-04-12T07:06:33.903Z,9.30
2023-04-12T07:09:38.055Z,9.34
2023-04-12T07:13:05.545Z,9.40
2023-04-12T07:16:58.522Z,9.34
2023-04-12T07:20:09.155Z,9.36
2023-04-12T07:24:29.523Z,9.37
2023-04-12T07:27:36.551Z,9.33
2023-04-12T07:30:48.363Z,9.35
2023-04-12T07:34:03.144Z,9.42
2023-04-12T07:37:51.648Z,9.45
2023-04-12T07:49:35.027Z,9.50
2023-04-12T07:52:43.094Z,9.47
2023-04-12T07:56:54.109Z,9.48
2023-04-12T08:04:51.954Z,9.45
2023-04-12T08:08:16.326Z,9.54
2023-04-12T08:11:52.519Z,9.49
2023-04-12T08:14:58.275Z,9.48
2023-04-12T08:22:59.972Z,9.57
2023-04-12T08:26:03.499Z,9.51
2023-04-12T08:29:07.162Z,9.46
2023-04-12T08:32:13.194Z,9.45
2023-04-12T08:35:16.758Z,9.46
2023-04-12T08:38:50.451Z,9.51
2023-04-12T08:42:04.717Z,9.46
2023-04-12T08:45:26.226Z,9.48
2023-04-12T08:56:18.710Z,9.36
2023-04-12T08:59:59.418Z,9.35
2023-04-12T09:03:39.264Z,9.35
2023-04-12T09:15:14.391Z,9.18
2023-04-12T09:18:33.280Z,9.16
2023-04-12T09:26:55.538Z,9.11
2023-04-12T09:44:55.756Z,9.06
2023-04-12T09:52:52.259Z,8.99
2023-04-12T10:00:59.993Z,8.95
2023-04-12T10:04:42.066Z,8.86
2023-04-12T10:12:03.104Z,8.62
2023-04-12T10:15:19.528Z,8.53
2023-04-12T10:18:32.525Z,8.43
2023-04-12T10:33:56.582Z,8.12
2023-04-12T10:37:01.870Z,8.02
2023-04-12T10:40:05.220Z,7.89
2023-04-12T10:43:20.472Z,7.79
2023-04-12T10:46:41.768Z,7.67
2023-04-12T10:50:32.732Z,7.48
2023-04-12T10:53:38.468Z,7.30
2023-04-12T10:56:45.101Z,7.17
2023-04-12T11:00:15.407Z,7.02
2023-04-12T11:03:19.012Z,6.90
2023-04-12T11:06:40.919Z,6.71
2023-04-12T11:10:02.851Z,6.55
2023-04-12T11:13:11.689Z,6.37
2023-04-12T11:16:16.156Z,6.08
2023-04-12T11:19:20.124Z,5.94
2023-04-12T11:22:25.916Z,5.75
2023-04-12T11:25:30.148Z,5.57
2023-04-12T11:28:35.252Z,5.40
2023-04-12T11:31:40.266Z,5.25
2023-04-12T11:34:45.940Z,5.14
2023-04-12T11:37:49.130Z,5.05
2023-04-12T11:40:52.350Z,4.96
2023-04-12T11:43:56.009Z,4.85
2023-04-12T11:46:59.405Z,4.76
2023-04-12T11:50:06.823Z,4.70
2023-04-12T11:53:20.204Z,4.64
2023-04-12T11:56:24.524Z,4.55
2023-04-12T11:59:34.857Z,4.47
2023-04-12T12:02:46.540Z,4.40
2023-04-12T12:05:56.482Z,4.41
2023-04-12T12:09:00.149Z,4.38
2023-04-12T12:12:03.691Z,4.35
2023-04-12T12:15:08.419Z,4.30
2023-04-12T12:18:11.789Z,4.28
2023-04-12T12:21:16.197Z,4.25
2023-04-12T12:24:19.457Z,4.19
2023-04-12T12:27:35.568Z,4.08
2023-04-12T12:30:40.887Z,3.99
2023-04-12T12:33:47.192Z,3.94
2023-04-12T12:36:58.726Z,3.89
2023-04-12T12:40:02.361Z,3.77
2023-04-12T12:43:07.655Z,3.66
2023-04-12T12:46:11.174Z,3.56
2023-04-12T12:49:14.541Z,3.46
2023-04-12T12:52:18.089Z,3.40
2023-04-12T12:55:24.872Z,3.40
2023-04-12T12:58:28.125Z,3.43
2023-04-12T13:01:31.379Z,3.44
2023-04-12T13:04:34.988Z,3.38
2023-04-12T13:07:38.579Z,3.31
2023-04-12T13:10:41.983Z,3.24
2023-04-12T13:13:45.191Z,3.10
2023-04-12T13:16:49.881Z,2.96
2023-04-12T13:19:53.191Z,2.80
2023-04-12T13:22:56.716Z,2.65
2023-04-12T13:25:59.850Z,2.54
2023-04-12T13:29:04.031Z,2.49
2023-04-12T13:32:07.507Z,2.50
2023-04-12T13:35:10.986Z,2.48
2023-04-12T13:38:14.166Z,2.48
2023-04-12T13:41:17.350Z,2.51
2023-04-12T13:44:20.757Z,2.55
2023-04-12T13:47:24.371Z,2.49
2023-04-12T13:50:27.946Z,2.45
2023-04-12T13:53:31.684Z,2.38
2023-04-12T13:56:35.022Z,2.34
2023-04-12T13:59:38.336Z,2.32
2023-04-12T14:02:41.655Z,2.31
2023-04-12T14:05:44.964Z,2.26
2023-04-12T14:08:48.679Z,2.26
2023-04-12T14:11:52.092Z,2.32
2023-04-12T14:14:55.248Z,2.43
2023-04-12T14:17:58.504Z,2.52
2023-04-12T14:21:01.997Z,2.58
2023-04-12T14:24:05.473Z,2.63
2023-04-12T14:27:09.226Z,2.66
2023-04-12T14:30:12.707Z,2.65
2023-04-12T14:33:16.178Z,2.57
2023-04-12T14:36:19.922Z,2.47
2023-04-12T14:39:24.836Z,2.34
2023-04-12T14:42:27.729Z,2.28
2023-04-12T14:45:31.268Z,2.16
2023-04-12T14:48:34.596Z,1.99
2023-04-12T14:51:37.860Z,1.77
2023-04-12T14:54:40.964Z,1.68
2023-04-12T14:57:45.040Z,1.60
2023-04-12T15:00:49.517Z,1.54
2023-04-12T15:03:54.955Z,1.42
2023-04-12T15:06:58.290Z,1.33
2023-04-12T15:10:01.958Z,1.32
2023-04-12T15:13:05.311Z,1.26
2023-04-12T15:16:15.791Z,1.17
2023-04-12T15:19:22.812Z,1.08
2023-04-12T15:22:27.428Z,1.02
2023-04-12T15:25:31.585Z,1.00
2023-04-12T15:28:34.844Z,1.03
2023-04-12T15:31:38.223Z,1.07
2023-04-12T15:34:41.496Z,1.09
2023-04-12T15:37:44.746Z,1.10
2023-04-12T15:40:54.292Z,1.01
2023-04-12T15:43:57.732Z,0.89
2023-04-12T15:47:11.121Z,0.84
2023-04-12T15:50:15.199Z,0.79
2023-04-12T15:53:21.848Z,0.80
2023-04-12T15:56:25.893Z,0.82
2023-04-12T15:59:30.039Z,0.80
2023-04-12T16:02:34.411Z,0.71
2023-04-12T16:05:37.882Z,0.55
2023-04-12T16:08:41.017Z,0.43
2023-04-12T16:11:44.740Z,0.42
2023-04-12T16:14:48.823Z,0.49
2023-04-12T16:17:56.810Z,0.56
2023-04-12T16:21:00.487Z,0.65
2023-04-12T16:24:03.924Z,0.71
2023-04-12T16:27:07.778Z,0.73
2023-04-12T16:30:12.667Z,0.77
2023-04-12T16:33:15.573Z,0.82
2023-04-12T16:36:19.710Z,0.79
2023-04-12T16:39:22.976Z,0.80
2023-04-12T16:42:28.876Z,0.80
2023-04-12T16:45:32.208Z,0.81
2023-04-12T16:48:36.590Z,0.76
2023-04-12T16:51:39.872Z,0.66
2023-04-12T16:54:43.128Z,0.57
2023-04-12T16:57:46.927Z,0.48
2023-04-12T17:00:50.168Z,0.33
2023-04-12T17:03:53.927Z,0.20
2023-04-12T17:06:57.487Z,0.11
2023-04-12T17:10:00.633Z,0.03
2023-04-12T17:13:03.942Z,-0.14
2023-04-12T17:16:07.545Z,-0.39
2023-04-12T17:19:10.833Z,-0.64
2023-04-12T17:22:13.960Z,-0.67
2023-04-12T17:25:19.037Z,-0.60
2023-04-12T17:28:25.018Z,-0.56
2023-04-12T17:31:30.000Z,-0.54
2023-04-12T17:34:34.497Z,-0.51
2023-04-12T17:37:38.451Z,-0.55
2023-04-12T17:40:41.811Z,-0.65
2023-04-12T17:43:47.915Z,-0.76
2023-04-12T17:46:51.220Z,-0.85
2023-04-12T17:49:54.939Z,-0.86
2023-04-12T17:53:00.324Z,-0.91
2023-04-12T17:56:05.218Z,-0.98
2023-04-12T17:59:08.430Z,-1.04
2023-04-12T18:02:11.779Z,-1.01
2023-04-12T18:05:15.139Z,-0.93
2023-04-12T18:08:18.349Z,-0.78
2023-04-12T18:11:21.668Z,-0.74
2023-04-12T18:14:25.535Z,-0.82
2023-04-12T18:17:28.933Z,-0.89
2023-04-12T18:20:32.140Z,-0.86
2023-04-12T18:23:35.291Z,-0.87
2023-04-12T18:26:38.424Z,-1.06
2023-04-12T18:29:41.555Z,-1.26
2023-04-12T18:32:44.822Z,-1.35
2023-04-12T18:35:48.100Z,-1.27
2023-04-12T18:38:51.437Z,-1.12
2023-04-12T18:41:54.546Z,-1.05
2023-04-12T18:44:58.867Z,-1.04
2023-04-12T18:48:03.998Z,-1.05
2023-04-12T18:51:07.997Z,-1.02
2023-04-12T18:54:14.389Z,-0.91
2023-04-12T18:57:17.665Z,-0.82
2023-04-12T19:00:21.967Z,-0.74
2023-04-12T19:03:27.111Z,-0.71
2023-04-12T19:06:31.544Z,-0.77
2023-04-12T19:09:35.003Z,-0.88
2023-04-12T19:12:38.291Z,-0.91
2023-04-12T19:15:41.514Z,-0.97
2023-04-12T19:18:44.729Z,-1.01
2023-04-12T19:21:48.019Z,-0.97
2023-04-12T19:24:51.138Z,-1.00
2023-04-12T19:27:54.348Z,-1.15
2023-04-12T19:31:00.679Z,-1.19
2023-04-12T19:34:03.912Z,-1.19
2023-04-12T19:37:11.694Z,-1.17
2023-04-12T19:40:15.205Z,-1.23
2023-04-12T19:43:21.580Z,-1.35
2023-04-12T19:46:24.851Z,-1.41
2023-04-12T19:49:28.341Z,-1.44
2023-04-12T19:52:31.557Z,-1.45
2023-04-12T19:55:34.826Z,-1.48
2023-04-12T19:58:38.327Z,-1.47
2023-04-12T20:01:50.961Z,-1.44
2023-04-12T20:04:54.574Z,-1.37
2023-04-12T20:07:57.688Z,-1.36
2023-04-12T20:11:00.981Z,-1.40
2023-04-12T20:14:04.271Z,-1.44
2023-04-12T20:17:07.621Z,-1.43
2023-04-12T20:20:11.918Z,-1.38
2023-04-12T20:23:15.299Z,-1.40
2023-04-12T20:26:19.118Z,-1.43
2023-04-12T20:29:22.603Z,-1.44
2023-04-12T20:32:26.012Z,-1.41
2023-04-12T20:35:29.225Z,-1.37
2023-04-12T20:38:32.485Z,-1.42
2023-04-12T20:41:39.074Z,-1.34
2023-04-12T20:44:42.234Z,-1.35
2023-04-12T20:47:45.714Z,-1.41
2023-04-12T20:50:48.816Z,-1.52
2023-04-12T20:53:52.266Z,-1.65
2023-04-12T20:56:55.410Z,-1.76
2023-04-12T21:00:01.015Z,-1.83
2023-04-12T21:03:04.785Z,-1.87
2023-04-12T21:06:09.978Z,-1.86
2023-04-12T21:09:13.110Z,-1.91
2023-04-12T21:12:18.251Z,-1.92
2023-04-12T21:15:22.775Z,-1.89
2023-04-12T21:18:25.882Z,-1.91
2023-04-12T21:21:29.176Z,-2.00
2023-04-12T21:24:38.290Z,-2.15
2023-04-12T21:27:46.327Z,-2.27
2023-04-12T21:30:55.479Z,-2.30
2023-04-12T21:34:02.378Z,-2.21
2023-04-12T21:37:06.103Z,-2.06
2023-04-12T21:40:13.150Z,-2.04
2023-04-12T21:43:16.823Z,-2.12
2023-04-12T21:46:20.514Z,-2.08
2023-04-12T21:49:23.695Z,-1.99
2023-04-12T21:52:27.382Z,-1.94
2023-04-12T21:55:30.520Z,-1.93
2023-04-12T21:58:34.656Z,-1.98
2023-04-12T22:01:38.628Z,-2.01
2023-04-12T22:04:42.805Z,-2.13
2023-04-12T22:07:46.020Z,-2.32
2023-04-12T22:10:49.684Z,-2.46
2023-04-12T22:13:53.676Z,-2.50
2023-04-12T22:16:58.221Z,-2.39
2023-04-12T22:20:01.668Z,-2.23
2023-04-12T22:23:05.277Z,-2.03
2023-04-12T22:26:09.982Z,-1.79
2023-04-12T22:29:13.159Z,-1.66
2023-04-12T22:32:16.358Z,-1.49
2023-04-12T22:35:21.163Z,-1.31
2023-04-12T22:38:24.277Z,0.20
2023-04-12T22:41:29.003Z,2.39
2023-04-12T22:44:38.957Z,4.35
2023-04-12T22:47:45.312Z,5.03
2023-04-12T22:50:48.953Z,4.01
2023-04-12T22:53:52.094Z,2.71
2023-04-12T22:56:55.451Z,2.09
2023-04-12T22:59:59.812Z,1.89
2023-04-12T23:03:04.797Z,2.72
2023-04-12T23:06:08.500Z,5.51
2023-04-12T23:09:13.062Z,8.71
2023-04-12T23:12:16.287Z,11.36
2023-04-12T23:15:19.496Z,13.49
2023-04-12T23:18:22.718Z,15.08
2023-04-12T23:21:25.916Z,16.53
2023-04-12T23:24:29.161Z,17.71
2023-04-12T23:27:32.598Z,19.05
2023-04-12T23:30:35.708Z,19.86
2023-04-12T23:33:43.700Z,20.43
2023-04-12T23:36:46.856Z,21.14
2023-04-12T23:39:50.021Z,21.18
2023-04-12T23:42:53.192Z,19.99
2023-04-12T23:45:57.209Z,18.99
2023-04-12T23:49:00.334Z,18.21
2023-04-12T23:52:03.502Z,18.26
2023-04-12T23:55:07.434Z,18.64
2023-04-12T23:58:10.768Z,18.60
